createdAt,value
2023-02-19T00:01:08.797Z,7.28
2023-02-19T00:03:36.668Z,7.28
2023-02-19T00:06:06.764Z,7.28
2023-02-19T00:08:35.671Z,7.26
2023-02-19T00:11:03.865Z,7.28
2023-02-19T00:13:31.618Z,7.23
2023-02-19T00:15:59.173Z,7.24
2023-02-19T00:18:26.709Z,7.18
2023-02-19T00:20:57.007Z,7.20
2023-02-19T00:23:26.894Z,7.15
2023-02-19T00:25:54.572Z,7.16
2023-02-19T00:28:22.258Z,7.11
2023-02-19T00:30:50.304Z,7.07
2023-02-19T00:33:17.894Z,7.05
2023-02-19T00:35:45.797Z,7.09
2023-02-19T00:38:13.317Z,7.06
2023-02-19T00:40:42.232Z,7.06
2023-02-19T00:43:09.771Z,7.06
2023-02-19T00:45:37.466Z,7.00
2023-02-19T00:48:05.035Z,7.02
2023-02-19T00:50:32.573Z,6.96
2023-02-19T00:53:00.185Z,6.95
2023-02-19T00:55:27.782Z,6.92
2023-02-19T00:57:56.663Z,6.89
2023-02-19T01:00:24.176Z,6.84
2023-02-19T01:02:51.734Z,6.77
2023-02-19T01:05:19.372Z,6.67
2023-02-19T01:07:46.936Z,6.61
2023-02-19T01:10:14.441Z,6.57
2023-02-19T01:12:42.001Z,6.54
2023-02-19T01:15:11.193Z,6.50
2023-02-19T01:17:38.980Z,6.46
2023-02-19T01:20:07.101Z,6.45
2023-02-19T01:22:35.019Z,6.42
2023-02-19T01:25:02.596Z,6.42
2023-02-19T01:27:30.122Z,6.39
2023-02-19T01:29:57.650Z,6.39
2023-02-19T01:32:26.520Z,6.34
2023-02-19T01:34:54.054Z,6.33
2023-02-19T01:37:21.547Z,6.32
2023-02-19T01:39:49.116Z,6.34
2023-02-19T01:42:17.471Z,6.30
2023-02-19T01:45:24.780Z,6.27
2023-02-19T01:47:58.768Z,6.25
2023-02-19T01:50:29.758Z,6.27
2023-02-19T01:52:57.537Z,6.21
2023-02-19T01:55:25.310Z,6.19
2023-02-19T01:57:54.455Z,6.21
2023-02-19T02:00:24.253Z,6.17
2023-02-19T02:02:53.805Z,6.16
2023-02-19T02:05:30.754Z,6.14
2023-02-19T02:08:17.043Z,6.16
2023-02-19T02:10:45.325Z,6.19
2023-02-19T02:13:12.896Z,6.11
2023-02-19T02:15:46.140Z,6.18
2023-02-19T02:18:21.829Z,6.22
2023-02-19T02:21:03.203Z,6.20
2023-02-19T02:23:39.745Z,6.21
2023-02-19T02:26:11.652Z,6.19
2023-02-19T02:29:14.871Z,6.17
2023-02-19T02:31:45.892Z,6.19
2023-02-19T02:34:17.063Z,6.24
2023-02-19T02:36:46.572Z,6.20
2023-02-19T02:39:16.891Z,6.21
2023-02-19T02:41:46.463Z,6.16
2023-02-19T02:44:14.456Z,6.20
2023-02-19T02:46:45.879Z,6.18
2023-02-19T02:49:17.176Z,6.16
2023-02-19T02:51:48.304Z,6.22
2023-02-19T02:54:37.637Z,6.21
2023-02-19T02:57:05.624Z,6.19
2023-02-19T02:59:35.657Z,6.23
2023-02-19T03:02:14.022Z,6.26
2023-02-19T03:05:12.028Z,6.23
2023-02-19T03:07:42.822Z,6.27
2023-02-19T03:10:13.235Z,6.27
2023-02-19T03:12:59.737Z,6.26
2023-02-19T03:15:46.960Z,6.31
2023-02-19T03:18:35.180Z,6.26
2023-02-19T03:21:03.626Z,6.25
2023-02-19T03:23:52.141Z,6.26
2023-02-19T03:26:20.519Z,6.22
2023-02-19T03:29:06.554Z,6.23
2023-02-19T03:31:34.403Z,6.24
2023-02-19T03:34:06.676Z,6.22
2023-02-19T03:36:37.221Z,6.26
2023-02-19T03:39:07.494Z,6.21
2023-02-19T03:41:37.786Z,6.26
2023-02-19T03:44:10.896Z,6.25
2023-02-19T03:46:45.882Z,6.26
2023-02-19T03:49:21.309Z,6.24
2023-02-19T03:51:52.011Z,6.22
2023-02-19T03:54:21.786Z,6.27
2023-02-19T03:56:51.643Z,6.25
2023-02-19T03:59:23.147Z,6.23
2023-02-19T04:01:55.343Z,6.23
2023-02-19T04:04:26.649Z,6.22
2023-02-19T04:06:56.981Z,6.17
2023-02-19T04:09:26.471Z,6.20
2023-02-19T04:11:55.362Z,6.21
2023-02-19T04:14:26.006Z,6.21
2023-02-19T04:17:02.953Z,6.20
2023-02-19T04:19:34.553Z,6.28
2023-02-19T04:22:02.861Z,6.26
2023-02-19T04:24:33.674Z,6.27
2023-02-19T04:27:01.460Z,6.27
2023-02-19T04:29:28.966Z,6.29
2023-02-19T04:31:56.568Z,6.33
2023-02-19T04:34:24.158Z,6.28
2023-02-19T04:36:53.018Z,6.36
2023-02-19T04:39:20.676Z,6.33
2023-02-19T04:41:48.187Z,6.37
2023-02-19T04:44:15.769Z,6.35
2023-02-19T04:46:43.316Z,6.37
2023-02-19T04:49:11.096Z,6.38
2023-02-19T04:51:39.302Z,6.37
2023-02-19T04:54:08.667Z,6.41
2023-02-19T04:56:36.233Z,6.41
2023-02-19T04:59:03.978Z,6.37
2023-02-19T05:01:31.541Z,6.38
2023-02-19T05:03:59.111Z,6.44
2023-02-19T05:06:27.633Z,6.45
2023-02-19T05:08:55.198Z,6.53
2023-02-19T05:11:24.704Z,6.42
2023-02-19T05:13:52.268Z,6.32
2023-02-19T05:16:19.839Z,6.31
2023-02-19T05:18:47.648Z,6.28
2023-02-19T05:21:15.781Z,6.20
2023-02-19T05:23:43.557Z,6.24
2023-02-19T05:26:15.272Z,6.26
2023-02-19T05:28:44.363Z,6.23
2023-02-19T05:31:12.899Z,6.24
2023-02-19T05:33:42.962Z,6.26
2023-02-19T05:36:13.237Z,6.22
2023-02-19T05:38:41.365Z,6.25
2023-02-19T05:41:11.331Z,6.28
2023-02-19T05:43:39.249Z,6.23
2023-02-19T05:46:08.810Z,6.24
2023-02-19T05:48:36.454Z,6.27
2023-02-19T05:51:04.827Z,6.28
2023-02-19T05:53:32.526Z,6.27
2023-02-19T05:56:00.366Z,6.30
2023-02-19T05:58:28.276Z,6.35
2023-02-19T06:00:55.984Z,6.34
2023-02-19T06:03:25.615Z,6.31
2023-02-19T06:05:53.602Z,6.28
2023-02-19T06:08:21.104Z,6.27
2023-02-19T06:10:48.621Z,6.23
2023-02-19T06:13:17.807Z,6.17
2023-02-19T06:15:45.513Z,6.22
2023-02-19T06:18:13.057Z,6.28
2023-02-19T06:20:41.891Z,6.28
2023-02-19T06:23:09.707Z,6.18
2023-02-19T06:25:37.198Z,6.17
2023-02-19T06:28:04.925Z,6.22
2023-02-19T06:30:32.476Z,6.26
2023-02-19T06:33:00.183Z,6.29
2023-02-19T06:35:27.732Z,6.31
2023-02-19T06:37:56.583Z,6.31
2023-02-19T06:40:24.077Z,6.25
2023-02-19T06:42:51.627Z,6.34
2023-02-19T06:45:19.131Z,6.33
2023-02-19T06:47:46.653Z,6.29
2023-02-19T06:50:14.175Z,6.33
2023-02-19T06:52:41.770Z,6.31
2023-02-19T06:55:11.586Z,6.33
2023-02-19T06:57:39.382Z,6.35
2023-02-19T07:00:07.998Z,6.39
2023-02-19T07:02:35.543Z,6.36
2023-02-19T07:05:03.064Z,6.45
2023-02-19T07:07:30.598Z,6.43
2023-02-19T07:09:58.782Z,6.46
2023-02-19T07:12:27.654Z,6.51
2023-02-19T07:14:55.190Z,6.52
2023-02-19T07:17:22.705Z,6.50
2023-02-19T07:19:50.298Z,6.50
2023-02-19T07:22:17.805Z,6.48
2023-02-19T07:24:47.849Z,6.51
2023-02-19T07:27:15.607Z,6.50
2023-02-19T07:29:44.534Z,6.56
2023-02-19T07:32:12.121Z,6.60
2023-02-19T07:34:39.657Z,6.61
2023-02-19T07:37:07.389Z,6.63
2023-02-19T07:39:34.922Z,6.65
2023-02-19T07:42:02.444Z,6.68
2023-02-19T07:44:29.966Z,6.69
2023-02-19T07:46:58.808Z,6.72
2023-02-19T07:49:26.456Z,6.75
2023-02-19T07:51:53.990Z,6.75
2023-02-19T07:54:21.484Z,6.77
2023-02-19T07:56:49.708Z,6.71
2023-02-19T07:59:19.368Z,6.79
2023-02-19T08:02:04.845Z,6.83
2023-02-19T08:04:33.857Z,6.82
2023-02-19T08:07:01.547Z,6.86
2023-02-19T08:09:29.053Z,6.78
2023-02-19T08:12:14.523Z,6.81
2023-02-19T08:14:42.062Z,6.85
2023-02-19T08:17:09.592Z,6.90
2023-02-19T08:19:38.468Z,6.94
2023-02-19T08:22:06.063Z,6.93
2023-02-19T08:24:33.937Z,6.95
2023-02-19T08:27:01.507Z,6.97
2023-02-19T08:29:29.212Z,7.07
2023-02-19T08:31:56.887Z,7.18
2023-02-19T08:34:24.597Z,7.09
2023-02-19T08:36:53.526Z,7.09
2023-02-19T08:39:21.376Z,7.27
2023-02-19T08:41:49.273Z,7.28
2023-02-19T08:44:17.069Z,7.28
2023-02-19T08:46:44.611Z,7.31
2023-02-19T08:49:12.178Z,7.30
2023-02-19T08:51:39.743Z,7.30
2023-02-19T08:54:08.609Z,7.28
2023-02-19T08:56:36.175Z,7.28
2023-02-19T08:59:03.783Z,7.26
2023-02-19T09:01:31.518Z,7.27
2023-02-19T09:03:59.145Z,7.31
2023-02-19T09:06:27.711Z,7.37
2023-02-19T09:08:55.234Z,7.44
2023-02-19T09:11:24.125Z,7.41
2023-02-19T09:13:51.650Z,7.41
2023-02-19T09:16:19.191Z,7.44
2023-02-19T09:18:46.780Z,7.38
2023-02-19T09:21:14.829Z,7.39
2023-02-19T09:23:42.366Z,7.32
2023-02-19T09:26:11.442Z,7.31
2023-02-19T09:28:41.941Z,7.33
2023-02-19T09:31:11.406Z,7.32
2023-02-19T09:33:39.700Z,7.33
2023-02-19T09:36:07.866Z,7.33
2023-02-19T09:38:35.386Z,7.43
2023-02-19T09:41:07.798Z,7.42
2023-02-19T09:43:36.140Z,7.41
2023-02-19T09:46:11.114Z,7.70
2023-02-19T09:48:38.940Z,7.68
2023-02-19T09:51:08.160Z,7.86
2023-02-19T09:53:42.122Z,7.81
2023-02-19T09:56:09.884Z,7.93
2023-02-19T09:58:47.097Z,8.00
2023-02-19T10:01:16.630Z,8.22
2023-02-19T10:03:47.097Z,8.08
2023-02-19T10:06:20.375Z,8.09
2023-02-19T10:08:49.100Z,8.21
2023-02-19T10:11:17.130Z,8.11
2023-02-19T10:13:47.118Z,7.95
2023-02-19T10:16:19.098Z,7.92
2023-02-19T10:18:47.477Z,7.95
2023-02-19T10:21:19.744Z,8.08
2023-02-19T10:23:48.526Z,8.00
2023-02-19T10:26:16.202Z,7.87
2023-02-19T10:28:43.823Z,7.74
2023-02-19T10:31:23.377Z,7.78
2023-02-19T10:33:52.425Z,7.82
2023-02-19T10:36:26.477Z,7.85
2023-02-19T10:38:54.317Z,7.87
2023-02-19T10:41:23.756Z,7.89
2023-02-19T10:43:54.106Z,7.94
2023-02-19T10:46:25.002Z,7.95
2023-02-19T10:48:54.115Z,7.89
2023-02-19T10:51:22.951Z,7.75
2023-02-19T10:53:51.899Z,7.82
2023-02-19T10:56:25.375Z,7.84
2023-02-19T10:58:53.016Z,7.80
2023-02-19T11:01:21.657Z,7.82
2023-02-19T11:03:53.278Z,7.85
2023-02-19T11:06:22.396Z,7.80
2023-02-19T11:08:53.121Z,7.69
2023-02-19T11:11:26.038Z,7.63
2023-02-19T11:13:54.957Z,7.61
2023-02-19T11:16:22.687Z,7.61
2023-02-19T11:18:57.485Z,7.44
2023-02-19T11:21:28.581Z,7.29
2023-02-19T11:23:56.309Z,7.28
2023-02-19T11:26:26.406Z,7.22
2023-02-19T11:28:57.331Z,7.22
2023-02-19T11:31:26.949Z,7.21
2023-02-19T11:33:57.947Z,7.18
2023-02-19T11:36:34.108Z,7.11
2023-02-19T11:39:17.109Z,7.17
2023-02-19T11:42:12.942Z,7.20
2023-02-19T11:44:48.805Z,7.34
2023-02-19T11:47:36.378Z,7.33
2023-02-19T11:50:12.014Z,7.39
2023-02-19T11:52:44.256Z,7.52
2023-02-19T11:55:18.157Z,7.75
2023-02-19T11:57:48.357Z,7.70
2023-02-19T12:00:22.822Z,7.56
2023-02-19T12:03:18.813Z,7.62
2023-02-19T12:05:55.490Z,7.62
2023-02-19T12:08:38.918Z,7.75
2023-02-19T12:11:15.122Z,7.76
2023-02-19T12:13:56.150Z,7.74
2023-02-19T12:16:27.652Z,7.91
2023-02-19T12:19:05.684Z,7.88
2023-02-19T12:21:43.467Z,7.66
2023-02-19T12:24:27.792Z,7.55
2023-02-19T12:27:06.632Z,7.37
2023-02-19T12:29:49.254Z,7.36
2023-02-19T12:32:31.734Z,7.23
2023-02-19T12:35:14.542Z,7.24
2023-02-19T12:37:49.167Z,7.13
2023-02-19T12:40:26.080Z,7.15
2023-02-19T12:43:03.156Z,7.09
2023-02-19T12:45:33.394Z,6.94
2023-02-19T12:48:02.657Z,6.88
2023-02-19T12:50:30.698Z,6.94
2023-02-19T12:53:02.732Z,6.90
2023-02-19T12:55:33.061Z,7.02
2023-02-19T12:58:04.323Z,7.27
2023-02-19T13:00:36.387Z,7.39
2023-02-19T13:03:06.378Z,8.06
2023-02-19T13:05:42.142Z,8.15
2023-02-19T13:08:15.586Z,8.33
2023-02-19T13:10:45.746Z,8.56
2023-02-19T13:13:16.509Z,8.21
2023-02-19T13:15:48.446Z,8.09
2023-02-19T13:18:19.632Z,7.96
2023-02-19T13:20:48.755Z,8.00
2023-02-19T13:23:39.368Z,8.00
2023-02-19T13:26:20.623Z,7.81
2023-02-19T13:29:00.285Z,7.87
2023-02-19T13:31:49.034Z,7.75
2023-02-19T13:34:24.353Z,7.95
2023-02-19T13:36:52.223Z,8.05
2023-02-19T13:39:22.066Z,8.05
2023-02-19T13:41:51.707Z,8.04
2023-02-19T13:44:21.115Z,7.93
2023-02-19T13:46:49.973Z,7.85
2023-02-19T13:49:42.801Z,7.89
2023-02-19T13:52:50.369Z,7.91
2023-02-19T13:55:52.562Z,7.74
2023-02-19T13:58:40.835Z,7.77
2023-02-19T14:01:09.558Z,7.76
2023-02-19T14:03:50.791Z,7.71
2023-02-19T14:06:18.542Z,7.69
2023-02-19T14:08:56.007Z,7.71
2023-02-19T14:12:01.042Z,7.69
2023-02-19T14:14:35.693Z,7.62
2023-02-19T14:17:08.426Z,7.59
2023-02-19T14:19:53.862Z,7.59
2023-02-19T14:23:04.292Z,7.49
2023-02-19T14:25:39.193Z,7.33
2023-02-19T14:28:23.109Z,7.24
2023-02-19T14:30:53.948Z,7.27
2023-02-19T14:33:24.193Z,7.09
2023-02-19T14:35:54.515Z,6.97
2023-02-19T14:38:23.986Z,6.92
2023-02-19T14:40:53.104Z,6.89
2023-02-19T14:43:23.155Z,6.76
2023-02-19T14:45:55.920Z,6.71
2023-02-19T14:48:26.104Z,6.83
2023-02-19T14:50:56.980Z,6.92
2023-02-19T14:53:25.620Z,6.88
2023-02-19T14:55:53.831Z,6.77
2023-02-19T14:58:25.088Z,6.65
2023-02-19T15:00:54.050Z,6.63
2023-02-19T15:03:33.215Z,6.74
2023-02-19T15:06:04.627Z,6.78
2023-02-19T15:08:36.278Z,6.79
2023-02-19T15:11:05.931Z,6.74
2023-02-19T15:13:33.493Z,6.80
2023-02-19T15:16:02.715Z,6.86
2023-02-19T15:18:35.597Z,7.00
2023-02-19T15:21:05.668Z,7.14
2023-02-19T15:23:35.920Z,7.22
2023-02-19T15:26:03.618Z,7.29
2023-02-19T15:28:34.741Z,7.24
2023-02-19T15:31:15.683Z,7.28
2023-02-19T15:33:52.843Z,7.20
2023-02-19T15:36:26.132Z,7.14
2023-02-19T15:38:55.689Z,7.22
2023-02-19T15:41:24.202Z,7.25
2023-02-19T15:43:54.816Z,7.21
2023-02-19T15:46:25.624Z,7.22
2023-02-19T15:48:59.293Z,7.21
2023-02-19T15:51:31.037Z,7.03
2023-02-19T15:54:04.235Z,7.05
2023-02-19T15:56:33.530Z,6.97
2023-02-19T15:59:03.558Z,6.94
2023-02-19T16:01:34.450Z,6.87
2023-02-19T16:04:02.266Z,6.85
2023-02-19T16:06:30.612Z,6.79
2023-02-19T16:09:02.856Z,6.71
2023-02-19T16:11:36.280Z,6.66
2023-02-19T16:14:26.360Z,6.48
2023-02-19T16:16:56.709Z,6.51
2023-02-19T16:19:27.034Z,6.42
2023-02-19T16:21:56.288Z,6.41
2023-02-19T16:24:28.801Z,6.42
2023-02-19T16:26:57.146Z,6.31
2023-02-19T16:29:26.257Z,6.28
2023-02-19T16:31:57.167Z,6.16
2023-02-19T16:34:34.193Z,5.99
2023-02-19T16:37:03.459Z,5.87
2023-02-19T16:39:32.518Z,5.73
2023-02-19T16:42:17.950Z,5.63
2023-02-19T16:44:45.739Z,5.54
2023-02-19T16:47:32.022Z,5.48
2023-02-19T16:50:02.146Z,5.41
2023-02-19T16:52:30.283Z,5.28
2023-02-19T16:54:57.832Z,5.50
2023-02-19T16:57:25.371Z,5.49
2023-02-19T16:59:52.929Z,5.45
2023-02-19T17:02:23.751Z,5.40
2023-02-19T17:04:54.920Z,5.38
2023-02-19T17:07:23.466Z,5.35
2023-02-19T17:09:50.988Z,5.33
2023-02-19T17:12:19.039Z,5.24
2023-02-19T17:14:46.791Z,5.28
2023-02-19T17:17:14.289Z,5.31
2023-02-19T17:19:43.494Z,5.27
2023-02-19T17:22:13.849Z,5.20
2023-02-19T17:24:41.415Z,5.03
2023-02-19T17:27:11.721Z,5.11
2023-02-19T17:29:39.597Z,5.02
2023-02-19T17:32:08.528Z,5.07
2023-02-19T17:34:36.257Z,5.04
2023-02-19T17:37:05.193Z,5.00
2023-02-19T17:39:32.809Z,5.01
2023-02-19T17:42:00.340Z,5.01
2023-02-19T17:44:27.824Z,5.00
2023-02-19T17:46:55.418Z,4.95
2023-02-19T17:49:23.065Z,4.93
2023-02-19T17:51:50.669Z,4.99
2023-02-19T17:54:19.607Z,4.99
2023-02-19T17:56:47.616Z,5.00
2023-02-19T17:59:16.852Z,5.07
2023-02-19T18:01:46.073Z,5.13
2023-02-19T18:04:13.614Z,5.15
2023-02-19T18:06:42.857Z,5.27
2023-02-19T18:09:11.401Z,5.29
2023-02-19T18:11:40.319Z,5.27
2023-02-19T18:14:07.997Z,5.35
2023-02-19T18:16:35.535Z,5.42
2023-02-19T18:19:03.051Z,5.41
2023-02-19T18:21:30.559Z,5.41
2023-02-19T18:23:58.032Z,5.39
2023-02-19T18:26:25.746Z,5.36
2023-02-19T18:28:54.691Z,5.38
2023-02-19T18:31:22.551Z,5.23
2023-02-19T18:33:50.182Z,5.23
2023-02-19T18:36:17.760Z,5.20
2023-02-19T18:38:46.172Z,5.23
2023-02-19T18:41:14.429Z,5.18
2023-02-19T18:43:42.592Z,5.38
2023-02-19T18:46:12.012Z,5.43
2023-02-19T18:48:40.087Z,5.44
2023-02-19T18:51:11.151Z,5.42
2023-02-19T18:53:38.954Z,5.46
2023-02-19T18:56:09.411Z,5.47
2023-02-19T18:58:36.948Z,5.46
2023-02-19T19:01:04.782Z,5.43
2023-02-19T19:03:33.830Z,5.45
2023-02-19T19:06:01.363Z,5.47
2023-02-19T19:08:30.674Z,5.47
2023-02-19T19:10:58.332Z,5.50
2023-02-19T19:13:25.857Z,5.56
2023-02-19T19:15:53.409Z,5.58
2023-02-19T19:18:21.290Z,5.60
2023-02-19T19:20:50.305Z,5.55
2023-02-19T19:23:18.212Z,5.52
2023-02-19T19:25:45.767Z,5.63
2023-02-19T19:28:13.386Z,5.64
2023-02-19T19:30:42.289Z,5.67
2023-02-19T19:33:09.900Z,5.67
2023-02-19T19:35:37.468Z,5.55
2023-02-19T19:38:06.373Z,5.69
2023-02-19T19:40:33.932Z,5.66
2023-02-19T19:43:01.525Z,5.67
2023-02-19T19:45:29.073Z,5.67
2023-02-19T19:47:56.630Z,5.59
2023-02-19T19:50:24.183Z,5.48
2023-02-19T19:52:51.745Z,5.42
2023-02-19T19:55:22.360Z,5.48
2023-02-19T19:57:50.322Z,5.48
2023-02-19T20:00:19.491Z,5.35
2023-02-19T20:02:47.708Z,5.28
2023-02-19T20:05:16.749Z,5.36
2023-02-19T20:07:44.497Z,5.40
2023-02-19T20:10:13.015Z,5.41
2023-02-19T20:12:42.121Z,5.44
2023-02-19T20:15:10.872Z,5.47
2023-02-19T20:17:38.937Z,5.50
2023-02-19T20:20:07.761Z,5.57
2023-02-19T20:22:36.490Z,5.63
2023-02-19T20:25:04.117Z,5.63
2023-02-19T20:27:31.773Z,5.65
2023-02-19T20:30:00.688Z,5.70
2023-02-19T20:32:28.212Z,5.69
2023-02-19T20:34:55.724Z,5.72
2023-02-19T20:37:23.440Z,5.71
2023-02-19T20:39:51.016Z,5.73
2023-02-19T20:42:19.994Z,5.75
2023-02-19T20:44:47.764Z,5.80
2023-02-19T20:47:16.957Z,5.78
2023-02-19T20:49:45.933Z,5.78
2023-02-19T20:52:15.657Z,5.76
2023-02-19T20:54:44.345Z,5.71
2023-02-19T20:57:12.543Z,5.73
2023-02-19T20:59:40.844Z,5.76
2023-02-19T21:02:10.148Z,5.74
2023-02-19T21:04:40.576Z,5.74
2023-02-19T21:07:08.074Z,5.79
2023-02-19T21:09:35.620Z,5.80
2023-02-19T21:12:03.166Z,5.78
2023-02-19T21:14:30.711Z,5.77
2023-02-19T21:16:58.237Z,5.75
2023-02-19T21:19:25.831Z,5.74
2023-02-19T21:21:54.727Z,5.70
2023-02-19T21:24:22.278Z,5.69
2023-02-19T21:26:49.895Z,5.68
2023-02-19T21:29:19.629Z,5.65
2023-02-19T21:31:48.987Z,5.69
2023-02-19T21:34:18.445Z,5.70
2023-02-19T21:36:46.498Z,5.67
2023-02-19T21:39:17.174Z,5.65
2023-02-19T21:41:45.228Z,5.57
2023-02-19T21:44:13.044Z,5.61
2023-02-19T21:46:40.776Z,5.54
2023-02-19T21:49:08.447Z,5.58
2023-02-19T21:51:37.684Z,5.54
2023-02-19T21:54:06.087Z,5.52
2023-02-19T21:56:36.716Z,5.48
2023-02-19T21:59:04.719Z,5.47
2023-02-19T22:01:34.183Z,5.46
2023-02-19T22:04:02.160Z,5.41
2023-02-19T22:06:31.155Z,5.44
2023-02-19T22:08:58.883Z,5.44
2023-02-19T22:11:26.759Z,5.35
2023-02-19T22:13:55.654Z,5.36
2023-02-19T22:16:23.729Z,5.31
2023-02-19T22:18:52.885Z,5.27
2023-02-19T22:21:21.314Z,5.26
2023-02-19T22:23:50.289Z,5.22
2023-02-19T22:26:19.603Z,5.18
2023-02-19T22:28:47.735Z,5.20
2023-02-19T22:31:17.320Z,5.18
2023-02-19T22:33:45.184Z,5.18
2023-02-19T22:36:16.916Z,5.20
2023-02-19T22:38:44.471Z,5.24
2023-02-19T22:41:12.548Z,5.24
2023-02-19T22:43:40.124Z,5.22
2023-02-19T22:46:11.555Z,5.25
2023-02-19T22:48:40.709Z,5.25
2023-02-19T22:51:12.927Z,5.26
2023-02-19T22:53:44.469Z,5.25
2023-02-19T22:56:12.846Z,5.23
2023-02-19T22:58:40.796Z,5.23
2023-02-19T23:01:08.710Z,5.19
2023-02-19T23:03:36.383Z,5.16
2023-02-19T23:06:05.887Z,5.13
2023-02-19T23:08:33.447Z,5.14
2023-02-19T23:11:00.973Z,5.14
2023-02-19T23:13:28.540Z,5.18
2023-02-19T23:15:56.095Z,5.16
2023-02-19T23:18:23.627Z,5.14
2023-02-19T23:20:51.171Z,5.18
2023-02-19T23:23:20.031Z,5.16
2023-02-19T23:25:47.577Z,5.19
2023-02-19T23:28:15.083Z,5.21
2023-02-19T23:30:42.648Z,5.26
2023-02-19T23:33:10.254Z,5.27
2023-02-19T23:35:37.762Z,5.26
2023-02-19T23:38:05.315Z,5.29
2023-02-19T23:40:34.192Z,5.30
2023-02-19T23:43:01.704Z,5.31
2023-02-19T23:45:29.708Z,5.26
2023-02-19T23:47:57.297Z,5.33
2023-02-19T23:50:24.887Z,5.25
2023-02-19T23:52:52.560Z,5.25
2023-02-19T23:55:20.094Z,5.18
2023-02-19T23:57:48.964Z,5.14
